sensor_id;sensor_type;location;lat;lon;timestamp;P1;durP1;ratioP1;P2;durP2;ratioP2
37843;SDS011;63793;57.632;18.292;2022-11-15T00:01:28;12.45;;;8.45;;
37843;SDS011;63793;57.632;18.292;2022-11-15T00:04:14;13.88;;;9.18;;
37843;SDS011;63793;57.632;18.292;2022-11-15T00:07:00;14.45;;;9.82;;
37843;SDS011;63793;57.632;18.292;2022-11-15T00:09:45;10.90;;;7.90;;
37843;SDS011;63793;57.632;18.292;2022-11-15T00:12:31;14.52;;;8.75;;
37843;SDS011;63793;57.632;18.292;2022-11-15T00:15:16;11.05;;;8.05;;
37843;SDS011;63793;57.632;18.292;2022-11-15T00:18:02;14.65;;;8.95;;
37843;SDS011;63793;57.632;18.292;2022-11-15T00:20:49;15.90;;;8.70;;
37843;SDS011;63793;57.632;18.292;2022-11-15T00:23:34;13.05;;;8.60;;
37843;SDS011;63793;57.632;18.292;2022-11-15T00:26:20;9.98;;;7.80;;
37843;SDS011;63793;57.632;18.292;2022-11-15T00:29:05;11.68;;;8.48;;
37843;SDS011;63793;57.632;18.292;2022-11-15T00:31:51;12.18;;;8.73;;
37843;SDS011;63793;57.632;18.292;2022-11-15T00:34:37;11.27;;;8.48;;
37843;SDS011;63793;57.632;18.292;2022-11-15T00:37:23;11.50;;;8.75;;
37843;SDS011;63793;57.632;18.292;2022-11-15T00:40:08;10.57;;;7.93;;
37843;SDS011;63793;57.632;18.292;2022-11-15T00:42:54;12.90;;;8.05;;
37843;SDS011;63793;57.632;18.292;2022-11-15T00:45:40;12.93;;;8.52;;
37843;SDS011;63793;57.632;18.292;2022-11-15T00:48:25;11.05;;;8.07;;
37843;SDS011;63793;57.632;18.292;2022-11-15T00:51:11;12.57;;;9.77;;
37843;SDS011;63793;57.632;18.292;2022-11-15T00:53:56;11.63;;;9.50;;
37843;SDS011;63793;57.632;18.292;2022-11-15T00:56:42;12.13;;;10.68;;
37843;SDS011;63793;57.632;18.292;2022-11-15T00:59:27;14.18;;;9.02;;
37843;SDS011;63793;57.632;18.292;2022-11-15T01:02:13;13.20;;;9.48;;
37843;SDS011;63793;57.632;18.292;2022-11-15T01:04:58;12.57;;;9.05;;
37843;SDS011;63793;57.632;18.292;2022-11-15T01:07:44;14.48;;;9.15;;
37843;SDS011;63793;57.632;18.292;2022-11-15T01:10:30;12.35;;;8.75;;
37843;SDS011;63793;57.632;18.292;2022-11-15T01:13:15;10.43;;;8.57;;
37843;SDS011;63793;57.632;18.292;2022-11-15T01:18:57;10.63;;;7.68;;
37843;SDS011;63793;57.632;18.292;2022-11-15T01:21:43;11.38;;;8.38;;
37843;SDS011;63793;57.632;18.292;2022-11-15T01:24:28;12.43;;;8.25;;
37843;SDS011;63793;57.632;18.292;2022-11-15T01:27:14;12.25;;;8.18;;
37843;SDS011;63793;57.632;18.292;2022-11-15T01:29:59;9.50;;;7.78;;
37843;SDS011;63793;57.632;18.292;2022-11-15T01:32:45;10.50;;;8.13;;
37843;SDS011;63793;57.632;18.292;2022-11-15T01:35:30;13.43;;;8.15;;
37843;SDS011;63793;57.632;18.292;2022-11-15T01:38:16;11.00;;;7.68;;
37843;SDS011;63793;57.632;18.292;2022-11-15T01:41:01;12.88;;;8.77;;
37843;SDS011;63793;57.632;18.292;2022-11-15T01:43:51;8.30;;;7.15;;
37843;SDS011;63793;57.632;18.292;2022-11-15T01:46:38;9.73;;;6.88;;
37843;SDS011;63793;57.632;18.292;2022-11-15T01:49:25;10.60;;;7.13;;
37843;SDS011;63793;57.632;18.292;2022-11-15T01:52:13;10.20;;;7.68;;
37843;SDS011;63793;57.632;18.292;2022-11-15T01:57:57;6.28;;;5.68;;
37843;SDS011;63793;57.632;18.292;2022-11-15T02:00:46;10.00;;;6.45;;
37843;SDS011;63793;57.632;18.292;2022-11-15T02:03:35;6.80;;;4.88;;
37843;SDS011;63793;57.632;18.292;2022-11-15T02:06:31;8.95;;;5.72;;
37843;SDS011;63793;57.632;18.292;2022-11-15T02:09:17;5.03;;;4.32;;
37843;SDS011;63793;57.632;18.292;2022-11-15T02:12:03;6.10;;;4.65;;
37843;SDS011;63793;57.632;18.292;2022-11-15T02:14:52;5.07;;;4.03;;
37843;SDS011;63793;57.632;18.292;2022-11-15T02:21:05;5.43;;;3.30;;
37843;SDS011;63793;57.632;18.292;2022-11-15T02:29:57;6.20;;;3.90;;
37843;SDS011;63793;57.632;18.292;2022-11-15T02:32:49;6.88;;;5.30;;
37843;SDS011;63793;57.632;18.292;2022-11-15T02:36:00;4.40;;;3.97;;
37843;SDS011;63793;57.632;18.292;2022-11-15T02:44:31;6.30;;;4.82;;
37843;SDS011;63793;57.632;18.292;2022-11-15T02:47:22;6.65;;;4.97;;
37843;SDS011;63793;57.632;18.292;2022-11-15T02:50:13;5.68;;;4.20;;
37843;SDS011;63793;57.632;18.292;2022-11-15T02:53:03;7.25;;;3.80;;
37843;SDS011;63793;57.632;18.292;2022-11-15T02:55:48;9.48;;;5.45;;
37843;SDS011;63793;57.632;18.292;2022-11-15T02:58:51;8.75;;;4.63;;
37843;SDS011;63793;57.632;18.292;2022-11-15T03:11:32;5.90;;;4.68;;
37843;SDS011;63793;57.632;18.292;2022-11-15T03:14:39;5.95;;;5.15;;
37843;SDS011;63793;57.632;18.292;2022-11-15T03:17:45;6.70;;;4.65;;
37843;SDS011;63793;57.632;18.292;2022-11-15T03:20:35;6.70;;;4.40;;
37843;SDS011;63793;57.632;18.292;2022-11-15T03:23:22;9.57;;;6.03;;
37843;SDS011;63793;57.632;18.292;2022-11-15T03:26:09;7.25;;;5.63;;
37843;SDS011;63793;57.632;18.292;2022-11-15T03:28:58;13.35;;;6.28;;
37843;SDS011;63793;57.632;18.292;2022-11-15T03:34:37;6.53;;;4.38;;
37843;SDS011;63793;57.632;18.292;2022-11-15T03:37:26;5.57;;;4.70;;
37843;SDS011;63793;57.632;18.292;2022-11-15T03:40:20;6.63;;;5.03;;
37843;SDS011;63793;57.632;18.292;2022-11-15T03:46:01;10.15;;;4.68;;
37843;SDS011;63793;57.632;18.292;2022-11-15T03:48:52;5.82;;;4.50;;
37843;SDS011;63793;57.632;18.292;2022-11-15T03:51:42;4.50;;;4.10;;
37843;SDS011;63793;57.632;18.292;2022-11-15T03:54:28;5.32;;;4.82;;
37843;SDS011;63793;57.632;18.292;2022-11-15T03:57:13;7.43;;;6.45;;
37843;SDS011;63793;57.632;18.292;2022-11-15T03:59:58;5.90;;;4.43;;
37843;SDS011;63793;57.632;18.292;2022-11-15T04:02:44;7.97;;;6.22;;
37843;SDS011;63793;57.632;18.292;2022-11-15T04:05:29;7.03;;;5.60;;
37843;SDS011;63793;57.632;18.292;2022-11-15T04:08:15;8.15;;;5.38;;
37843;SDS011;63793;57.632;18.292;2022-11-15T04:11:01;6.43;;;5.10;;
37843;SDS011;63793;57.632;18.292;2022-11-15T04:13:46;7.90;;;5.53;;
37843;SDS011;63793;57.632;18.292;2022-11-15T04:16:31;8.27;;;5.22;;
37843;SDS011;63793;57.632;18.292;2022-11-15T04:19:17;12.10;;;5.90;;
37843;SDS011;63793;57.632;18.292;2022-11-15T04:22:21;8.75;;;6.85;;
37843;SDS011;63793;57.632;18.292;2022-11-15T04:25:25;9.63;;;5.50;;
37843;SDS011;63793;57.632;18.292;2022-11-15T04:28:16;8.23;;;5.03;;
37843;SDS011;63793;57.632;18.292;2022-11-15T04:31:01;6.18;;;4.65;;
37843;SDS011;63793;57.632;18.292;2022-11-15T04:33:47;8.95;;;4.72;;
37843;SDS011;63793;57.632;18.292;2022-11-15T04:36:33;6.68;;;4.15;;
37843;SDS011;63793;57.632;18.292;2022-11-15T04:39:37;9.10;;;4.95;;
37843;SDS011;63793;57.632;18.292;2022-11-15T04:42:22;6.57;;;5.38;;
37843;SDS011;63793;57.632;18.292;2022-11-15T04:45:08;7.70;;;4.47;;
37843;SDS011;63793;57.632;18.292;2022-11-15T04:47:54;6.97;;;4.90;;
37843;SDS011;63793;57.632;18.292;2022-11-15T04:50:39;6.68;;;4.57;;
37843;SDS011;63793;57.632;18.292;2022-11-15T04:53:25;7.00;;;5.22;;
37843;SDS011;63793;57.632;18.292;2022-11-15T04:56:11;8.82;;;5.72;;
37843;SDS011;63793;57.632;18.292;2022-11-15T04:58:56;6.00;;;5.03;;
37843;SDS011;63793;57.632;18.292;2022-11-15T05:01:42;10.32;;;7.05;;
37843;SDS011;63793;57.632;18.292;2022-11-15T05:04:29;7.95;;;6.57;;
37843;SDS011;63793;57.632;18.292;2022-11-15T05:07:14;9.07;;;6.65;;
37843;SDS011;63793;57.632;18.292;2022-11-15T05:10:00;7.45;;;6.28;;
37843;SDS011;63793;57.632;18.292;2022-11-15T05:12:46;10.30;;;7.43;;
37843;SDS011;63793;57.632;18.292;2022-11-15T05:15:31;9.38;;;6.40;;
37843;SDS011;63793;57.632;18.292;2022-11-15T05:18:17;9.13;;;7.25;;
37843;SDS011;63793;57.632;18.292;2022-11-15T05:21:08;10.80;;;7.22;;
37843;SDS011;63793;57.632;18.292;2022-11-15T05:23:55;13.15;;;7.90;;
37843;SDS011;63793;57.632;18.292;2022-11-15T05:26:41;12.05;;;7.90;;
37843;SDS011;63793;57.632;18.292;2022-11-15T05:29:26;9.95;;;7.63;;
37843;SDS011;63793;57.632;18.292;2022-11-15T05:32:12;8.93;;;7.35;;
37843;SDS011;63793;57.632;18.292;2022-11-15T05:34:58;9.55;;;8.55;;
37843;SDS011;63793;57.632;18.292;2022-11-15T05:37:43;11.38;;;7.78;;
37843;SDS011;63793;57.632;18.292;2022-11-15T05:40:29;13.63;;;8.70;;
37843;SDS011;63793;57.632;18.292;2022-11-15T05:43:16;11.60;;;8.57;;
37843;SDS011;63793;57.632;18.292;2022-11-15T05:46:01;26.23;;;8.50;;
37843;SDS011;63793;57.632;18.292;2022-11-15T05:48:49;12.48;;;8.23;;
37843;SDS011;63793;57.632;18.292;2022-11-15T05:51:36;12.75;;;7.95;;
37843;SDS011;63793;57.632;18.292;2022-11-15T05:54:22;14.90;;;8.43;;
37843;SDS011;63793;57.632;18.292;2022-11-15T05:57:09;10.05;;;8.02;;
37843;SDS011;63793;57.632;18.292;2022-11-15T05:59:54;11.73;;;8.63;;
37843;SDS011;63793;57.632;18.292;2022-11-15T06:02:40;8.75;;;7.47;;
37843;SDS011;63793;57.632;18.292;2022-11-15T06:05:25;11.15;;;8.13;;
37843;SDS011;63793;57.632;18.292;2022-11-15T06:08:11;9.45;;;8.25;;
37843;SDS011;63793;57.632;18.292;2022-11-15T06:11:02;10.13;;;6.00;;
37843;SDS011;63793;57.632;18.292;2022-11-15T06:13:48;8.63;;;4.93;;
37843;SDS011;63793;57.632;18.292;2022-11-15T06:16:34;8.38;;;5.82;;
37843;SDS011;63793;57.632;18.292;2022-11-15T06:19:19;5.35;;;4.78;;
37843;SDS011;63793;57.632;18.292;2022-11-15T06:22:05;9.23;;;5.10;;
37843;SDS011;63793;57.632;18.292;2022-11-15T06:24:50;7.47;;;4.43;;
37843;SDS011;63793;57.632;18.292;2022-11-15T06:27:36;5.45;;;4.32;;
37843;SDS011;63793;57.632;18.292;2022-11-15T06:30:21;3.58;;;2.92;;
37843;SDS011;63793;57.632;18.292;2022-11-15T06:33:08;5.13;;;3.25;;
37843;SDS011;63793;57.632;18.292;2022-11-15T06:35:53;3.40;;;3.10;;
37843;SDS011;63793;57.632;18.292;2022-11-15T06:38:39;5.82;;;3.28;;
37843;SDS011;63793;57.632;18.292;2022-11-15T06:41:25;6.25;;;3.50;;
37843;SDS011;63793;57.632;18.292;2022-11-15T06:44:10;3.42;;;2.83;;
37843;SDS011;63793;57.632;18.292;2022-11-15T06:46:56;4.32;;;2.97;;
37843;SDS011;63793;57.632;18.292;2022-11-15T06:49:41;2.25;;;2.03;;
37843;SDS011;63793;57.632;18.292;2022-11-15T06:52:26;5.35;;;3.42;;
37843;SDS011;63793;57.632;18.292;2022-11-15T06:55:17;2.05;;;1.85;;
37843;SDS011;63793;57.632;18.292;2022-11-15T06:58:02;2.13;;;1.95;;
37843;SDS011;63793;57.632;18.292;2022-11-15T07:00:48;2.63;;;1.90;;
37843;SDS011;63793;57.632;18.292;2022-11-15T07:03:34;3.85;;;1.80;;
37843;SDS011;63793;57.632;18.292;2022-11-15T07:06:21;4.43;;;1.73;;
37843;SDS011;63793;57.632;18.292;2022-11-15T07:09:06;3.65;;;2.33;;
37843;SDS011;63793;57.632;18.292;2022-11-15T07:11:52;5.45;;;2.38;;
37843;SDS011;63793;57.632;18.292;2022-11-15T07:14:37;2.58;;;1.80;;
37843;SDS011;63793;57.632;18.292;2022-11-15T07:17:23;2.47;;;2.28;;
37843;SDS011;63793;57.632;18.292;2022-11-15T07:20:08;2.25;;;2.05;;
37843;SDS011;63793;57.632;18.292;2022-11-15T07:23:01;2.08;;;1.77;;
37843;SDS011;63793;57.632;18.292;2022-11-15T07:25:47;2.03;;;1.83;;
37843;SDS011;63793;57.632;18.292;2022-11-15T07:28:32;2.67;;;1.90;;
37843;SDS011;63793;57.632;18.292;2022-11-15T07:31:18;3.60;;;1.95;;
37843;SDS011;63793;57.632;18.292;2022-11-15T07:34:04;2.42;;;1.83;;
37843;SDS011;63793;57.632;18.292;2022-11-15T07:36:50;4.65;;;2.83;;
37843;SDS011;63793;57.632;18.292;2022-11-15T07:39:35;3.75;;;1.52;;
37843;SDS011;63793;57.632;18.292;2022-11-15T07:42:21;3.40;;;1.88;;
37843;SDS011;63793;57.632;18.292;2022-11-15T07:45:25;2.45;;;2.13;;
37843;SDS011;63793;57.632;18.292;2022-11-15T07:48:11;1.40;;;1.30;;
37843;SDS011;63793;57.632;18.292;2022-11-15T07:50:56;1.00;;;0.82;;
37843;SDS011;63793;57.632;18.292;2022-11-15T07:53:42;1.75;;;0.98;;
37843;SDS011;63793;57.632;18.292;2022-11-15T07:56:27;0.47;;;0.47;;
37843;SDS011;63793;57.632;18.292;2022-11-15T07:59:13;0.73;;;0.60;;
37843;SDS011;63793;57.632;18.292;2022-11-15T08:01:58;0.43;;;0.30;;
37843;SDS011;63793;57.632;18.292;2022-11-15T08:04:44;1.48;;;1.38;;
37843;SDS011;63793;57.632;18.292;2022-11-15T08:07:30;0.55;;;0.52;;
37843;SDS011;63793;57.632;18.292;2022-11-15T08:10:16;0.75;;;0.45;;
37843;SDS011;63793;57.632;18.292;2022-11-15T08:13:05;0.90;;;0.38;;
37843;SDS011;63793;57.632;18.292;2022-11-15T08:16:01;1.42;;;0.50;;
37843;SDS011;63793;57.632;18.292;2022-11-15T08:18:47;0.50;;;0.50;;
37843;SDS011;63793;57.632;18.292;2022-11-15T08:21:33;2.40;;;0.30;;
37843;SDS011;63793;57.632;18.292;2022-11-15T08:24:19;0.52;;;0.20;;
37843;SDS011;63793;57.632;18.292;2022-11-15T08:27:05;0.85;;;0.20;;
37843;SDS011;63793;57.632;18.292;2022-11-15T08:29:59;0.30;;;0.30;;
37843;SDS011;63793;57.632;18.292;2022-11-15T08:32:45;0.45;;;0.30;;
37843;SDS011;63793;57.632;18.292;2022-11-15T08:35:30;0.73;;;0.40;;
37843;SDS011;63793;57.632;18.292;2022-11-15T08:38:16;0.40;;;0.40;;
37843;SDS011;63793;57.632;18.292;2022-11-15T08:41:03;0.50;;;0.20;;
37843;SDS011;63793;57.632;18.292;2022-11-15T08:43:49;0.52;;;0.45;;
37843;SDS011;63793;57.632;18.292;2022-11-15T08:46:34;0.50;;;0.45;;
37843;SDS011;63793;57.632;18.292;2022-11-15T08:49:20;0.55;;;0.43;;
37843;SDS011;63793;57.632;18.292;2022-11-15T08:52:05;0.75;;;0.45;;
37843;SDS011;63793;57.632;18.292;2022-11-15T08:54:51;0.20;;;0.20;;
37843;SDS011;63793;57.632;18.292;2022-11-15T08:57:36;3.00;;;0.52;;
37843;SDS011;63793;57.632;18.292;2022-11-15T09:00:22;0.47;;;0.47;;
37843;SDS011;63793;57.632;18.292;2022-11-15T09:03:07;3.45;;;0.57;;
37843;SDS011;63793;57.632;18.292;2022-11-15T09:05:54;0.85;;;0.40;;
37843;SDS011;63793;57.632;18.292;2022-11-15T09:08:40;0.20;;;0.20;;
37843;SDS011;63793;57.632;18.292;2022-11-15T09:11:33;1.88;;;0.43;;
37843;SDS011;63793;57.632;18.292;2022-11-15T09:14:19;0.43;;;0.43;;
37843;SDS011;63793;57.632;18.292;2022-11-15T09:17:07;1.10;;;0.70;;
37843;SDS011;63793;57.632;18.292;2022-11-15T09:19:53;1.45;;;0.60;;
37843;SDS011;63793;57.632;18.292;2022-11-15T09:22:38;4.53;;;0.77;;
37843;SDS011;63793;57.632;18.292;2022-11-15T09:25:24;0.50;;;0.50;;
37843;SDS011;63793;57.632;18.292;2022-11-15T09:28:09;2.20;;;0.47;;
37843;SDS011;63793;57.632;18.292;2022-11-15T09:30:58;0.88;;;0.57;;
37843;SDS011;63793;57.632;18.292;2022-11-15T09:33:44;1.23;;;0.80;;
37843;SDS011;63793;57.632;18.292;2022-11-15T09:36:34;4.47;;;0.98;;
37843;SDS011;63793;57.632;18.292;2022-11-15T09:39:20;1.30;;;1.05;;
37843;SDS011;63793;57.632;18.292;2022-11-15T09:48:58;2.28;;;1.10;;
37843;SDS011;63793;57.632;18.292;2022-11-15T09:52:02;0.98;;;0.55;;
37843;SDS011;63793;57.632;18.292;2022-11-15T09:54:39;3.55;;;0.82;;
37843;SDS011;63793;57.632;18.292;2022-11-15T09:59:51;1.30;;;0.60;;
37843;SDS011;63793;57.632;18.292;2022-11-15T10:05:18;1.70;;;1.35;;
37843;SDS011;63793;57.632;18.292;2022-11-15T10:08:11;1.40;;;1.05;;
37843;SDS011;63793;57.632;18.292;2022-11-15T10:11:03;1.55;;;0.60;;
37843;SDS011;63793;57.632;18.292;2022-11-15T10:13:54;1.65;;;0.82;;
37843;SDS011;63793;57.632;18.292;2022-11-15T10:24:44;3.40;;;0.60;;
37843;SDS011;63793;57.632;18.292;2022-11-15T10:27:14;2.17;;;0.70;;
37843;SDS011;63793;57.632;18.292;2022-11-15T10:29:46;2.20;;;0.63;;
37843;SDS011;63793;57.632;18.292;2022-11-15T10:32:15;6.47;;;1.05;;
37843;SDS011;63793;57.632;18.292;2022-11-15T10:34:44;2.88;;;1.20;;
37843;SDS011;63793;57.632;18.292;2022-11-15T10:37:11;2.38;;;0.75;;
37843;SDS011;63793;57.632;18.292;2022-11-15T10:39:38;1.40;;;0.55;;
37843;SDS011;63793;57.632;18.292;2022-11-15T10:42:15;11.15;;;1.13;;
37843;SDS011;63793;57.632;18.292;2022-11-15T10:44:44;1.50;;;0.70;;
37843;SDS011;63793;57.632;18.292;2022-11-15T10:49:56;4.05;;;1.15;;
37843;SDS011;63793;57.632;18.292;2022-11-15T10:52:34;1.75;;;0.82;;
37843;SDS011;63793;57.632;18.292;2022-11-15T10:57:38;1.23;;;0.40;;
37843;SDS011;63793;57.632;18.292;2022-11-15T11:00:12;1.20;;;0.55;;
37843;SDS011;63793;57.632;18.292;2022-11-15T11:03:03;1.58;;;0.60;;
37843;SDS011;63793;57.632;18.292;2022-11-15T11:05:34;3.70;;;1.13;;
37843;SDS011;63793;57.632;18.292;2022-11-15T11:10:38;1.27;;;0.85;;
37843;SDS011;63793;57.632;18.292;2022-11-15T11:16:01;10.10;;;3.40;;
37843;SDS011;63793;57.632;18.292;2022-11-15T11:19:01;1.08;;;0.93;;
37843;SDS011;63793;57.632;18.292;2022-11-15T11:30:41;1.75;;;0.93;;
37843;SDS011;63793;57.632;18.292;2022-11-15T11:38:37;2.28;;;0.73;;
37843;SDS011;63793;57.632;18.292;2022-11-15T11:47:00;3.25;;;1.02;;
37843;SDS011;63793;57.632;18.292;2022-11-15T11:49:29;3.58;;;1.35;;
37843;SDS011;63793;57.632;18.292;2022-11-15T11:52:10;5.97;;;1.77;;
37843;SDS011;63793;57.632;18.292;2022-11-15T12:00:17;2.22;;;1.00;;
37843;SDS011;63793;57.632;18.292;2022-11-15T12:06:05;4.10;;;0.60;;
37843;SDS011;63793;57.632;18.292;2022-11-15T12:09:04;3.15;;;1.27;;
37843;SDS011;63793;57.632;18.292;2022-11-15T12:17:24;1.35;;;0.30;;
37843;SDS011;63793;57.632;18.292;2022-11-15T12:19:55;3.00;;;1.70;;
37843;SDS011;63793;57.632;18.292;2022-11-15T12:22:25;7.47;;;0.82;;
37843;SDS011;63793;57.632;18.292;2022-11-15T12:25:20;2.15;;;0.70;;
37843;SDS011;63793;57.632;18.292;2022-11-15T12:30:31;2.47;;;0.50;;
37843;SDS011;63793;57.632;18.292;2022-11-15T12:36:40;3.88;;;0.60;;
37843;SDS011;63793;57.632;18.292;2022-11-15T12:39:11;1.90;;;0.40;;
37843;SDS011;63793;57.632;18.292;2022-11-15T12:41:40;5.18;;;0.98;;
37843;SDS011;63793;57.632;18.292;2022-11-15T12:59:50;2.65;;;0.82;;
37843;SDS011;63793;57.632;18.292;2022-11-15T13:13:08;4.15;;;1.13;;
37843;SDS011;63793;57.632;18.292;2022-11-15T13:15:37;1.67;;;0.60;;
37843;SDS011;63793;57.632;18.292;2022-11-15T13:20:50;3.03;;;0.60;;
37843;SDS011;63793;57.632;18.292;2022-11-15T13:23:16;3.22;;;0.80;;
37843;SDS011;63793;57.632;18.292;2022-11-15T13:25:48;4.22;;;1.30;;
37843;SDS011;63793;57.632;18.292;2022-11-15T13:28:46;0.98;;;0.60;;
37843;SDS011;63793;57.632;18.292;2022-11-15T13:31:28;2.50;;;0.75;;
37843;SDS011;63793;57.632;18.292;2022-11-15T13:34:15;10.20;;;0.95;;
37843;SDS011;63793;57.632;18.292;2022-11-15T13:39:47;5.68;;;0.70;;
37843;SDS011;63793;57.632;18.292;2022-11-15T13:42:18;2.08;;;1.00;;
37843;SDS011;63793;57.632;18.292;2022-11-15T13:44:59;1.75;;;0.50;;
37843;SDS011;63793;57.632;18.292;2022-11-15T13:47:28;2.22;;;0.40;;
37843;SDS011;63793;57.632;18.292;2022-11-15T13:49:59;2.83;;;0.57;;
37843;SDS011;63793;57.632;18.292;2022-11-15T13:52:37;1.10;;;0.82;;
37843;SDS011;63793;57.632;18.292;2022-11-15T13:57:47;0.65;;;0.40;;
37843;SDS011;63793;57.632;18.292;2022-11-15T14:00:25;1.55;;;0.60;;
37843;SDS011;63793;57.632;18.292;2022-11-15T14:02:53;1.65;;;0.45;;
37843;SDS011;63793;57.632;18.292;2022-11-15T14:05:22;2.08;;;0.88;;
37843;SDS011;63793;57.632;18.292;2022-11-15T14:07:58;2.08;;;0.75;;
37843;SDS011;63793;57.632;18.292;2022-11-15T14:10:32;27.48;;;1.52;;
37843;SDS011;63793;57.632;18.292;2022-11-15T14:13:04;2.45;;;0.50;;
37843;SDS011;63793;57.632;18.292;2022-11-15T14:15:37;0.50;;;0.40;;
37843;SDS011;63793;57.632;18.292;2022-11-15T14:18:05;1.17;;;0.45;;
37843;SDS011;63793;57.632;18.292;2022-11-15T14:20:36;2.35;;;0.45;;
37843;SDS011;63793;57.632;18.292;2022-11-15T14:23:05;1.92;;;0.80;;
37843;SDS011;63793;57.632;18.292;2022-11-15T14:25:55;0.38;;;0.35;;
37843;SDS011;63793;57.632;18.292;2022-11-15T14:30:51;1.15;;;0.38;;
37843;SDS011;63793;57.632;18.292;2022-11-15T14:33:21;0.53;;;0.33;;
37843;SDS011;63793;57.632;18.292;2022-11-15T14:35:51;0.63;;;0.40;;
37843;SDS011;63793;57.632;18.292;2022-11-15T14:38:18;2.30;;;0.63;;
37843;SDS011;63793;57.632;18.292;2022-11-15T14:40:46;2.20;;;0.30;;
37843;SDS011;63793;57.632;18.292;2022-11-15T14:43:13;2.28;;;0.50;;
37843;SDS011;63793;57.632;18.292;2022-11-15T14:45:40;3.53;;;0.32;;
37843;SDS011;63793;57.632;18.292;2022-11-15T14:48:07;4.28;;;3.35;;
37843;SDS011;63793;57.632;18.292;2022-11-15T14:50:34;1.20;;;0.50;;
37843;SDS011;63793;57.632;18.292;2022-11-15T14:53:02;2.63;;;0.52;;
37843;SDS011;63793;57.632;18.292;2022-11-15T14:55:30;2.90;;;0.60;;
37843;SDS011;63793;57.632;18.292;2022-11-15T14:58:05;0.60;;;0.32;;
37843;SDS011;63793;57.632;18.292;2022-11-15T15:00:36;1.95;;;0.57;;
37843;SDS011;63793;57.632;18.292;2022-11-15T15:03:04;0.60;;;0.52;;
37843;SDS011;63793;57.632;18.292;2022-11-15T15:05:33;1.50;;;0.95;;
37843;SDS011;63793;57.632;18.292;2022-11-15T15:08:05;5.53;;;1.65;;
37843;SDS011;63793;57.632;18.292;2022-11-15T15:10:42;2.58;;;0.80;;
37843;SDS011;63793;57.632;18.292;2022-11-15T15:13:21;2.40;;;0.55;;
37843;SDS011;63793;57.632;18.292;2022-11-15T15:15:50;2.65;;;0.55;;
37843;SDS011;63793;57.632;18.292;2022-11-15T15:18:18;1.35;;;0.63;;
37843;SDS011;63793;57.632;18.292;2022-11-15T15:20:47;0.75;;;0.40;;
37843;SDS011;63793;57.632;18.292;2022-11-15T15:23:26;2.72;;;0.47;;
37843;SDS011;63793;57.632;18.292;2022-11-15T15:25:55;0.57;;;0.50;;
37843;SDS011;63793;57.632;18.292;2022-11-15T15:28:22;1.60;;;0.55;;
37843;SDS011;63793;57.632;18.292;2022-11-15T15:30:49;1.23;;;0.57;;
37843;SDS011;63793;57.632;18.292;2022-11-15T15:33:16;2.22;;;0.43;;
37843;SDS011;63793;57.632;18.292;2022-11-15T15:35:43;0.70;;;0.20;;
37843;SDS011;63793;57.632;18.292;2022-11-15T15:38:11;1.60;;;0.60;;
37843;SDS011;63793;57.632;18.292;2022-11-15T15:40:38;2.00;;;0.70;;
37843;SDS011;63793;57.632;18.292;2022-11-15T15:43:05;3.00;;;0.50;;
37843;SDS011;63793;57.632;18.292;2022-11-15T15:45:38;1.02;;;0.45;;
37843;SDS011;63793;57.632;18.292;2022-11-15T15:48:16;0.98;;;0.63;;
37843;SDS011;63793;57.632;18.292;2022-11-15T15:50:43;1.02;;;0.40;;
37843;SDS011;63793;57.632;18.292;2022-11-15T15:53:10;2.38;;;0.52;;
37843;SDS011;63793;57.632;18.292;2022-11-15T15:55:38;0.70;;;0.38;;
37843;SDS011;63793;57.632;18.292;2022-11-15T15:58:06;1.10;;;0.50;;
37843;SDS011;63793;57.632;18.292;2022-11-15T16:00:34;0.93;;;0.60;;
37843;SDS011;63793;57.632;18.292;2022-11-15T16:03:02;1.23;;;0.60;;
37843;SDS011;63793;57.632;18.292;2022-11-15T16:05:30;0.73;;;0.70;;
37843;SDS011;63793;57.632;18.292;2022-11-15T16:07:57;2.08;;;0.45;;
37843;SDS011;63793;57.632;18.292;2022-11-15T16:10:24;0.63;;;0.55;;
37843;SDS011;63793;57.632;18.292;2022-11-15T16:12:53;2.50;;;1.17;;
37843;SDS011;63793;57.632;18.292;2022-11-15T16:15:22;2.00;;;0.70;;
37843;SDS011;63793;57.632;18.292;2022-11-15T16:17:51;1.65;;;1.00;;
37843;SDS011;63793;57.632;18.292;2022-11-15T16:20:23;1.67;;;0.65;;
37843;SDS011;63793;57.632;18.292;2022-11-15T16:23:00;0.65;;;0.65;;
37843;SDS011;63793;57.632;18.292;2022-11-15T16:25:42;0.65;;;0.50;;
37843;SDS011;63793;57.632;18.292;2022-11-15T16:28:18;0.20;;;0.13;;
37843;SDS011;63793;57.632;18.292;2022-11-15T16:30:47;3.13;;;1.33;;
37843;SDS011;63793;57.632;18.292;2022-11-15T16:33:21;1.92;;;0.50;;
37843;SDS011;63793;57.632;18.292;2022-11-15T16:35:49;1.63;;;0.55;;
37843;SDS011;63793;57.632;18.292;2022-11-15T16:38:16;0.60;;;0.40;;
37843;SDS011;63793;57.632;18.292;2022-11-15T16:40:44;1.75;;;1.48;;
37843;SDS011;63793;57.632;18.292;2022-11-15T16:43:11;3.00;;;1.73;;
37843;SDS011;63793;57.632;18.292;2022-11-15T16:45:38;2.53;;;1.50;;
37843;SDS011;63793;57.632;18.292;2022-11-15T16:48:05;3.65;;;1.17;;
37843;SDS011;63793;57.632;18.292;2022-11-15T16:50:33;2.22;;;1.30;;
37843;SDS011;63793;57.632;18.292;2022-11-15T16:53:06;2.22;;;1.13;;
37843;SDS011;63793;57.632;18.292;2022-11-15T16:55:33;1.95;;;0.50;;
37843;SDS011;63793;57.632;18.292;2022-11-15T16:58:00;1.67;;;0.68;;
37843;SDS011;63793;57.632;18.292;2022-11-15T17:00:27;0.60;;;0.60;;
37843;SDS011;63793;57.632;18.292;2022-11-15T17:02:54;1.10;;;1.00;;
37843;SDS011;63793;57.632;18.292;2022-11-15T17:05:23;2.47;;;1.23;;
37843;SDS011;63793;57.632;18.292;2022-11-15T17:07:52;1.42;;;0.70;;
37843;SDS011;63793;57.632;18.292;2022-11-15T17:10:20;2.95;;;0.50;;
37843;SDS011;63793;57.632;18.292;2022-11-15T17:12:48;1.58;;;0.47;;
37843;SDS011;63793;57.632;18.292;2022-11-15T17:15:15;4.68;;;4.22;;
37843;SDS011;63793;57.632;18.292;2022-11-15T17:17:43;11.68;;;10.65;;
37843;SDS011;63793;57.632;18.292;2022-11-15T17:20:14;3.53;;;3.33;;
37843;SDS011;63793;57.632;18.292;2022-11-15T17:22:42;0.60;;;0.60;;
37843;SDS011;63793;57.632;18.292;2022-11-15T17:25:09;1.55;;;0.40;;
37843;SDS011;63793;57.632;18.292;2022-11-15T17:27:36;5.82;;;2.00;;
37843;SDS011;63793;57.632;18.292;2022-11-15T17:30:03;4.78;;;1.95;;
37843;SDS011;63793;57.632;18.292;2022-11-15T17:32:31;4.18;;;2.60;;
37843;SDS011;63793;57.632;18.292;2022-11-15T17:34:58;1.13;;;0.68;;
37843;SDS011;63793;57.632;18.292;2022-11-15T17:37:24;1.30;;;1.05;;
37843;SDS011;63793;57.632;18.292;2022-11-15T17:39:51;1.40;;;1.30;;
37843;SDS011;63793;57.632;18.292;2022-11-15T17:42:18;2.95;;;2.65;;
37843;SDS011;63793;57.632;18.292;2022-11-15T17:44:45;2.40;;;0.88;;
37843;SDS011;63793;57.632;18.292;2022-11-15T17:47:12;2.35;;;1.38;;
37843;SDS011;63793;57.632;18.292;2022-11-15T17:49:39;2.88;;;1.25;;
37843;SDS011;63793;57.632;18.292;2022-11-15T17:52:06;3.58;;;1.92;;
37843;SDS011;63793;57.632;18.292;2022-11-15T17:54:33;2.03;;;1.33;;
37843;SDS011;63793;57.632;18.292;2022-11-15T17:57:00;4.82;;;1.42;;
37843;SDS011;63793;57.632;18.292;2022-11-15T17:59:27;3.53;;;1.42;;
37843;SDS011;63793;57.632;18.292;2022-11-15T18:01:54;2.17;;;2.08;;
37843;SDS011;63793;57.632;18.292;2022-11-15T18:04:21;1.95;;;0.63;;
37843;SDS011;63793;57.632;18.292;2022-11-15T18:06:53;2.15;;;0.80;;
37843;SDS011;63793;57.632;18.292;2022-11-15T18:09:21;4.07;;;0.80;;
37843;SDS011;63793;57.632;18.292;2022-11-15T18:11:49;4.13;;;1.30;;
37843;SDS011;63793;57.632;18.292;2022-11-15T18:14:19;1.63;;;1.00;;
37843;SDS011;63793;57.632;18.292;2022-11-15T18:16:46;2.95;;;0.90;;